Time;durP1;ratioP1;P1;durP2;ratioP2;P2;SDS_P1;SDS_P2;PMS_P1;PMS_P2;Temp;Humidity;BMP_temperature;BMP_pressure;BME280_temperature;BME280_humidity;BME280_pressure;Samples;Min_cycle;Max_cycle;Signal;HPM_P1;HPM_P2
2023/06/04 00:01:26;;;;;;;6.43;6.03;;;11.20;99.90;;;;;;4993798;28;20194;-80
2023/06/04 00:03:53;;;;;;;7.63;7.23;;;11.30;99.90;;;;;;4976508;28;20302;-81
2023/06/04 00:06:18;;;;;;;5.93;5.73;;;11.30;99.90;;;;;;4976834;28;20227;-81
2023/06/04 00:08:44;;;;;;;7.27;6.97;;;11.30;99.90;;;;;;4992500;28;20215;-80
2023/06/04 00:11:10;;;;;;;6.20;5.90;;;11.20;99.90;;;;;;4960041;28;20720;-81
2023/06/04 00:13:36;;;;;;;7.00;6.77;;;11.10;99.90;;;;;;4976997;28;20199;-80
2023/06/04 00:16:02;;;;;;;8.10;7.73;;;11.10;99.90;;;;;;4992349;28;20715;-80
2023/06/04 00:18:28;;;;;;;7.70;7.20;;;11.00;99.90;;;;;;4992412;28;20753;-80
2023/06/04 00:20:53;;;;;;;6.67;6.47;;;11.00;99.90;;;;;;4975987;28;20303;-81
2023/06/04 00:23:19;;;;;;;8.27;7.93;;;11.00;99.90;;;;;;4992503;28;20250;-81
2023/06/04 00:25:45;;;;;;;7.83;7.53;;;11.00;99.90;;;;;;4976858;28;20226;-81
2023/06/04 00:28:11;;;;;;;6.17;5.97;;;11.00;99.90;;;;;;4992153;28;20281;-81
2023/06/04 00:30:36;;;;;;;6.97;6.67;;;11.00;99.90;;;;;;5008763;28;20223;-81
2023/06/04 00:33:02;;;;;;;8.27;7.77;;;10.90;99.90;;;;;;4975804;28;20219;-81
2023/06/04 00:35:28;;;;;;;9.47;9.07;;;10.90;99.90;;;;;;4976079;28;20211;-81
2023/06/04 00:37:54;;;;;;;8.60;7.13;;;10.80;99.90;;;;;;4959738;28;20648;-80
2023/06/04 00:40:19;;;;;;;8.60;8.20;;;10.80;99.90;;;;;;4992641;28;20242;-81
2023/06/04 00:42:45;;;;;;;8.73;8.37;;;10.70;99.90;;;;;;4975783;28;20587;-80
2023/06/04 00:45:13;;;;;;;8.40;8.07;;;10.70;99.90;;;;;;4975322;28;20230;-81
2023/06/04 00:47:40;;;;;;;7.03;6.63;;;10.70;99.90;;;;;;4975623;28;20242;-80
2023/06/04 00:50:07;;;;;;;7.93;7.63;;;10.80;99.90;;;;;;5009186;28;20191;-80
2023/06/04 00:52:33;;;;;;;9.90;9.30;;;10.90;99.90;;;;;;4960436;28;20667;-80
2023/06/04 00:54:59;;;;;;;9.00;8.67;;;11.00;99.90;;;;;;4975659;28;20215;-80
2023/06/04 00:57:25;;;;;;;12.03;7.13;;;11.00;99.90;;;;;;4991732;28;20219;-80
2023/06/04 00:59:51;;;;;;;8.43;8.13;;;11.00;99.90;;;;;;4991540;28;20222;-81
2023/06/04 01:02:23;;;;;;;8.60;7.83;;;11.00;99.90;;;;;;4991549;28;20305;-80
2023/06/04 01:05:11;;;;;;;8.50;8.07;;;11.10;99.90;;;;;;4992380;28;20179;-80
2023/06/04 01:07:40;;;;;;;9.87;9.53;;;11.00;99.90;;;;;;5009265;28;20211;-80
2023/06/04 01:10:06;;;;;;;10.70;10.17;;;11.00;99.90;;;;;;4975972;28;20211;-80
2023/06/04 01:12:32;;;;;;;8.60;8.20;;;11.00;99.90;;;;;;4991386;28;20219;-80
2023/06/04 01:14:58;;;;;;;7.70;7.37;;;10.90;99.90;;;;;;4990547;28;20304;-80
2023/06/04 01:17:37;;;;;;;8.07;7.77;;;10.80;99.90;;;;;;4991417;28;20499;-79
2023/06/04 01:20:32;;;;;;;11.47;10.80;;;10.80;99.90;;;;;;4991381;28;20217;-79
2023/06/04 01:23:24;;;;;;;10.90;10.53;;;10.80;99.90;;;;;;5009046;28;20743;-80
2023/06/04 01:25:51;;;;;;;11.63;10.77;;;10.80;99.90;;;;;;4992030;28;20234;-80
2023/06/04 01:28:20;;;;;;;14.40;13.77;;;10.70;99.90;;;;;;4991061;28;20721;-80
2023/06/04 01:30:47;;;;;;;9.13;8.70;;;10.70;99.90;;;;;;4991724;28;20303;-80
2023/06/04 01:33:18;;;;;;;10.57;9.87;;;10.60;99.90;;;;;;4991116;28;20227;-80
2023/06/04 01:35:44;;;;;;;10.67;10.30;;;10.60;99.90;;;;;;4991038;28;20269;-80
2023/06/04 01:38:10;;;;;;;10.47;10.17;;;10.40;99.90;;;;;;5008378;28;20187;-80
2023/06/04 01:40:36;;;;;;;13.83;13.17;;;10.30;99.90;;;;;;4975538;28;20191;-81
2023/06/04 01:43:03;;;;;;;14.57;14.00;;;10.20;99.90;;;;;;4990771;28;20235;-80
2023/06/04 01:45:29;;;;;;;12.67;12.17;;;10.20;99.90;;;;;;5008099;28;20242;-80
2023/06/04 01:47:56;;;;;;;15.17;14.40;;;10.10;99.90;;;;;;4990875;28;20305;-80
2023/06/04 01:50:22;;;;;;;13.33;12.47;;;10.10;99.90;;;;;;5008176;28;20245;-80
2023/06/04 01:52:48;;;;;;;13.43;12.87;;;10.20;99.90;;;;;;4991356;28;20668;-79
2023/06/04 01:55:17;;;;;;;13.23;12.70;;;10.10;99.90;;;;;;4990734;28;20223;-80
2023/06/04 01:57:44;;;;;;;15.40;14.80;;;10.20;99.90;;;;;;5007233;28;20225;-80
2023/06/04 02:00:14;;;;;;;14.70;13.70;;;10.10;99.90;;;;;;4974585;28;20269;-79
2023/06/04 02:02:42;;;;;;;12.07;11.50;;;10.00;99.90;;;;;;4990297;28;20696;-80
2023/06/04 02:05:08;;;;;;;12.47;11.83;;;9.90;99.90;;;;;;5007872;28;20175;-79
2023/06/04 02:07:38;;;;;;;11.63;10.90;;;9.90;99.90;;;;;;5008711;28;20176;-79
2023/06/04 02:10:09;;;;;;;9.70;9.03;;;9.90;99.90;;;;;;4991042;28;20273;-81
2023/06/04 02:12:37;;;;;;;10.67;10.07;;;10.00;99.90;;;;;;4991216;28;20234;-80
2023/06/04 02:15:04;;;;;;;7.87;7.43;;;10.00;99.90;;;;;;4990290;28;20211;-80
2023/06/04 02:17:32;;;;;;;10.40;9.90;;;10.00;99.90;;;;;;4974426;28;20246;-80
2023/06/04 02:19:58;;;;;;;8.97;8.33;;;10.00;99.90;;;;;;4974767;28;20184;-79
2023/06/04 02:22:25;;;;;;;9.17;8.67;;;10.00;99.90;;;;;;4974454;28;20237;-79
2023/06/04 02:24:51;;;;;;;8.20;7.80;;;10.10;99.90;;;;;;4990381;28;20215;-80
2023/06/04 02:27:17;;;;;;;7.90;7.50;;;10.30;99.90;;;;;;4973863;28;20812;-80
2023/06/04 02:29:43;;;;;;;8.20;7.80;;;10.40;99.90;;;;;;4989870;28;20223;-80
2023/06/04 02:32:09;;;;;;;9.43;8.83;;;10.60;99.90;;;;;;4973620;28;20233;-79
2023/06/04 02:34:35;;;;;;;7.17;6.77;;;10.60;99.90;;;;;;4974428;28;20214;-80
2023/06/04 02:37:02;;;;;;;9.87;9.23;;;10.40;99.90;;;;;;4989742;28;20239;-81
2023/06/04 02:39:28;;;;;;;10.83;10.17;;;10.30;99.90;;;;;;4974034;28;20245;-79
2023/06/04 02:41:54;;;;;;;12.87;12.30;;;10.40;99.90;;;;;;4989428;28;20306;-80
2023/06/04 02:44:20;;;;;;;10.73;10.33;;;10.40;99.90;;;;;;4989852;28;20696;-81
2023/06/04 02:46:48;;;;;;;10.53;10.13;;;10.40;99.90;;;;;;5007877;28;20392;-80
2023/06/04 02:49:14;;;;;;;13.73;12.90;;;10.00;99.90;;;;;;4989591;28;20732;-80
2023/06/04 02:51:41;;;;;;;14.87;14.33;;;9.90;99.90;;;;;;4989676;28;20223;-80
2023/06/04 02:54:06;;;;;;;15.47;14.57;;;9.70;99.90;;;;;;5007410;28;20223;-80
2023/06/04 02:56:33;;;;;;;15.93;15.20;;;9.80;99.90;;;;;;4989555;28;20226;-80
2023/06/04 02:58:59;;;;;;;19.17;18.30;;;9.80;99.90;;;;;;4973737;28;20648;-80
2023/06/04 03:01:26;;;;;;;19.40;18.70;;;9.80;99.90;;;;;;5007211;28;20179;-80
2023/06/04 03:03:53;;;;;;;18.23;17.50;;;9.70;99.90;;;;;;4989196;28;20321;-81
2023/06/04 03:06:20;;;;;;;20.20;18.77;;;9.70;99.90;;;;;;5006688;28;20301;-81
2023/06/04 03:08:47;;;;;;;17.13;15.97;;;9.70;99.90;;;;;;4989109;28;20215;-81
2023/06/04 03:11:13;;;;;;;15.80;15.10;;;9.70;99.90;;;;;;4972674;28;20310;-81
2023/06/04 03:13:39;;;;;;;16.70;15.83;;;9.70;99.90;;;;;;5006012;28;20245;-81
2023/06/04 03:16:09;;;;;;;15.40;14.70;;;9.70;99.90;;;;;;4989251;28;20305;-80
2023/06/04 03:18:40;;;;;;;15.73;15.17;;;9.70;99.90;;;;;;4958276;28;20239;-80
2023/06/04 03:21:06;;;;;;;17.30;16.63;;;9.60;99.90;;;;;;5006800;28;20227;-80
2023/06/04 03:23:33;;;;;;;17.17;16.30;;;9.70;99.90;;;;;;4973160;28;20227;-81
2023/06/04 03:26:02;;;;;;;18.50;17.77;;;9.70;99.90;;;;;;4989268;28;20207;-79
2023/06/04 03:28:28;;;;;;;14.37;13.67;;;9.80;99.90;;;;;;5007351;28;20190;-81
2023/06/04 03:30:54;;;;;;;15.53;14.73;;;9.90;99.90;;;;;;5006614;28;20582;-79
2023/06/04 03:33:20;;;;;;;13.27;12.73;;;9.90;99.90;;;;;;5006438;28;20285;-80
2023/06/04 03:35:47;;;;;;;15.73;15.07;;;9.90;99.90;;;;;;4972861;28;20746;-80
2023/06/04 03:38:17;;;;;;;17.63;16.80;;;9.90;99.90;;;;;;5006356;28;20234;-81
2023/06/04 03:40:43;;;;;;;19.23;18.33;;;9.90;99.90;;;;;;5007496;28;20176;-81
2023/06/04 03:43:10;;;;;;;19.23;18.37;;;9.90;99.90;;;;;;4972361;28;20645;-80
2023/06/04 03:45:36;;;;;;;16.53;15.33;;;10.00;99.90;;;;;;5006502;28;20322;-80
2023/06/04 03:48:02;;;;;;;20.47;19.30;;;10.00;99.90;;;;;;4972878;28;20318;-79
2023/06/04 03:50:27;;;;;;;22.60;21.57;;;10.00;99.90;;;;;;4988727;28;20218;-79
2023/06/04 03:52:53;;;;;;;19.73;18.93;;;10.00;99.90;;;;;;4973217;28;20187;-80
2023/06/04 03:55:19;;;;;;;24.83;23.90;;;10.00;99.90;;;;;;5006808;28;20187;-80
2023/06/04 03:57:45;;;;;;;24.77;23.53;;;10.10;99.90;;;;;;5006483;28;20580;-81
2023/06/04 04:00:12;;;;;;;27.23;25.63;;;10.30;99.90;;;;;;4972516;28;20346;-80
2023/06/04 04:02:41;;;;;;;34.10;32.83;;;10.40;99.90;;;;;;5006446;28;20293;-79
2023/06/04 04:05:09;;;;;;;30.53;29.13;;;10.40;99.90;;;;;;4988454;28;20536;-79
2023/06/04 04:07:35;;;;;;;43.33;41.47;;;10.60;99.90;;;;;;4989658;28;20352;-80
2023/06/04 04:10:01;;;;;;;41.30;39.67;;;10.70;99.90;;;;;;4989105;28;20221;-79
2023/06/04 04:12:26;;;;;;;48.47;46.60;;;10.90;99.90;;;;;;4988492;28;20239;-81
2023/06/04 04:14:52;;;;;;;60.57;58.53;;;11.00;99.90;;;;;;4988947;28;20250;-80
2023/06/04 04:17:18;;;;;;;100.57;97.17;;;11.20;99.90;;;;;;4972598;28;20211;-80
2023/06/04 04:19:44;;;;;;;139.60;135.17;;;11.20;99.90;;;;;;4957105;28;20188;-80
2023/06/04 04:22:17;;;;;;;135.67;130.93;;;11.40;99.90;;;;;;4991666;28;20306;-79
2023/06/04 04:24:43;;;;;;;209.67;203.27;;;11.50;99.90;;;;;;4976450;28;20223;-80
2023/06/04 04:27:12;;;;;;;223.93;216.50;;;11.60;99.90;;;;;;4975976;28;20293;-80
2023/06/04 04:29:38;;;;;;;278.17;269.20;;;11.70;99.90;;;;;;4992271;28;20230;-80
2023/06/04 04:32:10;;;;;;;314.73;304.77;;;11.80;99.90;;;;;;4976068;28;20183;-79
2023/06/04 04:34:39;;;;;;;310.43;300.73;;;11.90;99.90;;;;;;4993457;28;20267;-80
2023/06/04 04:37:08;;;;;;;350.00;338.43;;;12.20;99.90;;;;;;4991919;28;20684;-80
2023/06/04 04:39:35;;;;;;;399.93;386.57;;;12.30;99.90;;;;;;4991902;28;20219;-81
2023/06/04 04:42:02;;;;;;;423.70;409.53;;;12.50;99.90;;;;;;4976035;28;20230;-81
2023/06/04 04:44:28;;;;;;;530.87;512.33;;;12.60;99.90;;;;;;4991844;28;20238;-80
2023/06/04 04:46:54;;;;;;;638.13;612.77;;;12.70;99.90;;;;;;4975697;28;20782;-80
2023/06/04 04:49:20;;;;;;;752.70;719.63;;;12.80;99.90;;;;;;4992475;28;20641;-79
2023/06/04 04:51:46;;;;;;;752.60;719.63;;;12.90;99.90;;;;;;4991848;28;20219;-79
2023/06/04 04:54:12;;;;;;;756.43;721.93;;;12.80;99.90;;;;;;4991474;28;20284;-80
2023/06/04 04:56:38;;;;;;;728.33;697.90;;;12.90;99.90;;;;;;5009135;28;20306;-81
2023/06/04 04:59:03;;;;;;;668.23;639.80;;;13.00;99.90;;;;;;4975378;28;20559;-81
2023/06/04 05:01:29;;;;;;;590.60;567.63;;;13.10;99.90;;;;;;4975710;28;20179;-80
2023/06/04 05:03:55;;;;;;;536.73;517.30;;;13.20;99.90;;;;;;4959398;28;20230;-79
2023/06/04 05:06:21;;;;;;;475.40;458.37;;;13.40;99.90;;;;;;4991299;28;20231;-80
2023/06/04 05:08:48;;;;;;;459.27;443.17;;;13.50;99.90;;;;;;4991639;28;20661;-80
2023/06/04 05:11:13;;;;;;;499.40;481.77;;;13.50;99.90;;;;;;5008673;28;20215;-80
2023/06/04 05:13:41;;;;;;;540.77;521.27;;;13.60;99.90;;;;;;4975883;28;20189;-81
2023/06/04 05:16:07;;;;;;;531.63;512.47;;;14.00;99.90;;;;;;4975426;28;20804;-80
2023/06/04 05:18:44;;;;;;;548.57;527.43;;;15.30;99.90;;;;;;4991191;28;20347;-80
2023/06/04 05:21:11;;;;;;;572.13;550.13;;;15.70;99.90;;;;;;4990836;28;20265;-81
2023/06/04 05:23:38;;;;;;;692.67;662.70;;;16.20;99.90;;;;;;4959000;28;20218;-81
2023/06/04 05:26:05;;;;;;;499.87;481.93;;;18.20;99.90;;;;;;4991171;28;20216;-80
2023/06/04 05:28:33;;;;;;;340.60;330.37;;;19.70;99.90;;;;;;4975398;28;20809;-80
2023/06/04 05:30:59;;;;;;;55.30;53.30;;;19.90;99.90;;;;;;5008291;28;20584;-80
2023/06/04 05:33:26;;;;;;;15.93;15.17;;;20.40;99.90;;;;;;4973763;28;20223;-80
2023/06/04 05:35:52;;;;;;;14.63;14.07;;;21.80;99.90;;;;;;5008699;28;20234;-80
2023/06/04 05:38:18;;;;;;;18.30;17.40;;;22.80;99.90;;;;;;4958245;28;20829;-80
2023/06/04 05:40:45;;;;;;;21.60;20.40;;;22.30;99.90;;;;;;4991554;28;20203;-80
2023/06/04 05:43:11;;;;;;;20.20;19.30;;;22.30;99.90;;;;;;4990743;28;20316;-81
2023/06/04 05:45:37;;;;;;;19.90;18.80;;;22.40;99.90;;;;;;5008235;28;20235;-80
2023/06/04 05:48:04;;;;;;;23.00;21.33;;;21.00;99.90;;;;;;4958548;28;20719;-80
2023/06/04 05:50:30;;;;;;;19.57;18.53;;;19.60;99.90;;;;;;4990340;28;20215;-80
2023/06/04 05:52:56;;;;;;;18.73;18.07;;;20.10;99.90;;;;;;4991036;28;20184;-80
2023/06/04 05:55:23;;;;;;;20.37;19.47;;;20.40;99.90;;;;;;4990942;28;20221;-80
2023/06/04 05:57:51;;;;;;;26.63;24.97;;;19.30;99.90;;;;;;4990506;28;20312;-82
2023/06/04 06:00:18;;;;;;;24.30;22.77;;;17.80;99.90;;;;;;4990404;28;20230;-80
2023/06/04 06:02:45;;;;;;;21.73;20.90;;;17.50;99.90;;;;;;4990697;28;20214;-81
2023/06/04 06:05:10;;;;;;;25.77;24.87;;;17.50;99.90;;;;;;4990928;28;20180;-80
2023/06/04 06:07:37;;;;;;;24.57;23.27;;;18.50;99.90;;;;;;5008053;28;20190;-80
2023/06/04 06:10:03;;;;;;;30.33;28.87;;;20.00;99.90;;;;;;4990675;28;20227;-80
2023/06/04 06:12:29;;;;;;;31.67;30.53;;;19.10;99.90;;;;;;4989879;28;20601;-80
2023/06/04 06:14:55;;;;;;;28.37;27.33;;;19.10;99.90;;;;;;4990129;28;20234;-80
2023/06/04 06:17:20;;;;;;;30.17;28.97;;;18.60;99.90;;;;;;4974211;28;20238;-80
2023/06/04 06:19:46;;;;;;;29.57;28.43;;;18.50;99.90;;;;;;4974824;28;20375;-80
2023/06/04 06:22:12;;;;;;;29.77;28.27;;;20.60;99.90;;;;;;4958005;28;20656;-80
2023/06/04 06:24:41;;;;;;;30.87;29.60;;;22.20;99.90;;;;;;4990102;28;20230;-80
2023/06/04 06:27:06;;;;;;;28.00;26.10;;;22.20;99.90;;;;;;4989843;28;20239;-81
2023/06/04 06:29:33;;;;;;;29.63;28.57;;;23.20;99.90;;;;;;4989314;28;20828;-81
2023/06/04 06:31:59;;;;;;;27.57;26.47;;;22.00;99.90;;;;;;4989964;28;20187;-80
2023/06/04 06:34:25;;;;;;;24.33;23.43;;;20.40;99.90;;;;;;4990434;28;20246;-80
2023/06/04 06:36:51;;;;;;;27.13;26.07;;;21.00;99.90;;;;;;4989736;28;20832;-79
2023/06/04 06:39:16;;;;;;;25.20;24.30;;;21.00;99.90;;;;;;4957501;28;20211;-79
2023/06/04 06:41:42;;;;;;;25.17;24.27;;;19.60;99.90;;;;;;4989968;28;20296;-80
2023/06/04 06:44:08;;;;;;;25.57;24.67;;;18.50;99.90;;;;;;4989350;28;20257;-81
2023/06/04 06:46:34;;;;;;;27.70;26.70;;;17.80;99.90;;;;;;5006382;28;20211;-79
2023/06/04 06:49:00;;;;;;;30.37;29.20;;;17.90;99.90;;;;;;4973645;28;20442;-79
2023/06/04 06:51:25;;;;;;;29.97;28.97;;;18.30;99.90;;;;;;5006779;28;20219;-79
2023/06/04 06:53:51;;;;;;;30.57;29.27;;;19.80;99.90;;;;;;4973333;28;20222;-79
2023/06/04 06:56:18;;;;;;;29.90;28.77;;;21.70;99.90;;;;;;4989461;28;20702;-79
2023/06/04 06:58:46;;;;;;;28.47;27.30;;;21.00;99.90;;;;;;4958307;28;20171;-79
2023/06/04 07:01:13;;;;;;;28.63;27.50;;;20.20;99.90;;;;;;4973283;28;20262;-79
2023/06/04 07:03:39;;;;;;;30.93;29.73;;;19.80;99.90;;;;;;5005681;28;20236;-80
2023/06/04 07:06:06;;;;;;;31.17;29.77;;;20.20;99.90;;;;;;5006920;28;20242;-80
2023/06/04 07:08:32;;;;;;;29.80;28.80;;;20.30;99.90;;;;;;5006302;28;20219;-80
2023/06/04 07:10:59;;;;;;;29.57;28.47;;;21.50;99.90;;;;;;4972196;28;20535;-80
2023/06/04 07:13:25;;;;;;;29.73;28.73;;;21.60;99.90;;;;;;4989833;28;20187;-80
2023/06/04 07:15:51;;;;;;;28.47;27.37;;;21.10;99.90;;;;;;5006799;28;20297;-84
2023/06/04 07:18:16;;;;;;;27.13;26.13;;;21.80;99.90;;;;;;4989254;28;20274;-83
2023/06/04 07:20:42;;;;;;;26.23;25.27;;;21.40;99.90;;;;;;4989340;28;20230;-80
2023/06/04 07:23:10;;;;;;;21.63;20.90;;;21.10;99.90;;;;;;4989485;28;20561;-80
2023/06/04 07:25:36;;;;;;;18.73;17.87;;;21.20;99.90;;;;;;4958475;28;20214;-80
2023/06/04 07:28:03;;;;;;;20.17;19.47;;;21.50;99.90;;;;;;4973020;28;20616;-81
2023/06/04 07:30:33;;;;;;;21.30;20.60;;;21.70;99.90;;;;;;5006544;28;20300;-80
2023/06/04 07:32:59;;;;;;;21.07;20.33;;;21.70;99.90;;;;;;4989310;28;20478;-80
2023/06/04 07:35:25;;;;;;;21.10;20.27;;;21.70;99.90;;;;;;4972760;28;20715;-80
2023/06/04 07:37:51;;;;;;;17.55;16.95;;;20.30;99.90;;;;;;5007447;28;20179;-81
2023/06/04 07:40:17;;;;;;;19.00;18.40;;;20.80;99.90;;;;;;5006510;28;20242;-80
2023/06/04 07:42:49;;;;;;;18.60;17.70;;;21.70;99.90;;;;;;4956814;28;20676;-80
2023/06/04 07:45:15;;;;;;;18.52;17.85;;;21.90;99.90;;;;;;4989032;28;20293;-80
2023/06/04 07:47:42;;;;;;;20.10;19.13;;;21.10;99.90;;;;;;4956770;28;20684;-80
2023/06/04 07:50:08;;;;;;;22.05;21.25;;;19.60;99.90;;;;;;4989226;28;20184;-81
2023/06/04 07:52:34;;;;;;;22.83;21.73;;;20.10;99.90;;;;;;5006886;28;20207;-80
2023/06/04 07:55:01;;;;;;;23.23;22.40;;;20.10;99.90;;;;;;4989244;28;20257;-80
2023/06/04 07:57:26;;;;;;;26.77;25.77;;;19.70;99.90;;;;;;4992036;28;20223;-80
2023/06/04 07:59:52;;;;;;;24.47;23.67;;;19.00;99.90;;;;;;4976946;28;20668;-79
2023/06/04 08:02:18;;;;;;;25.50;24.60;;;21.00;99.90;;;;;;4976484;28;20673;-80
2023/06/04 08:04:45;;;;;;;26.43;25.53;;;21.60;99.90;;;;;;5010919;28;20211;-80
2023/06/04 08:07:11;;;;;;;22.15;21.40;;;21.20;99.90;;;;;;4976409;28;20310;-80
2023/06/04 08:09:37;;;;;;;16.85;15.77;;;22.60;99.90;;;;;;5010233;28;20246;-80
2023/06/04 08:12:03;;;;;;;16.70;15.32;;;22.70;99.90;;;;;;4992353;28;20250;-80
2023/06/04 08:14:29;;;;;;;14.02;13.27;;;23.30;99.90;;;;;;4992471;28;20215;-80
2023/06/04 08:16:54;;;;;;;13.32;12.75;;;22.60;99.90;;;;;;4992678;28;20187;-80
2023/06/04 08:19:20;;;;;;;12.70;12.20;;;22.00;99.90;;;;;;4960536;28;20183;-80
2023/06/04 08:21:49;;;;;;;10.73;10.23;;;23.40;99.90;;;;;;4992240;28;20676;-81
2023/06/04 08:24:15;;;;;;;10.65;10.13;;;24.40;99.90;;;;;;4975864;28;20784;-80
2023/06/04 08:26:41;;;;;;;10.02;9.45;;;23.80;99.90;;;;;;4992146;28;20223;-81
2023/06/04 08:29:07;;;;;;;8.98;8.52;;;22.80;99.90;;;;;;4976075;28;20176;-82
2023/06/04 08:31:33;;;;;;;12.30;11.82;;;23.60;99.90;;;;;;4976564;28;20195;-81
2023/06/04 08:33:59;;;;;;;9.90;9.52;;;22.90;99.90;;;;;;4992150;28;20345;-81
2023/06/04 08:36:26;;;;;;;9.13;8.63;;;22.30;99.90;;;;;;4991844;28;20227;-81
2023/06/04 08:38:53;;;;;;;9.38;8.98;;;21.40;99.90;;;;;;5009644;28;20219;-80
2023/06/04 08:41:40;;;;;;;8.80;8.23;;;20.90;99.90;;;;;;4975904;28;20657;-81
2023/06/04 08:44:06;;;;;;;9.27;8.88;;;22.20;99.90;;;;;;5008824;28;20242;-80
2023/06/04 08:46:32;;;;;;;10.75;10.25;;;22.40;99.90;;;;;;4975910;28;20222;-81
2023/06/04 08:49:03;;;;;;;8.82;8.52;;;23.10;99.90;;;;;;5009484;28;20233;-81
2023/06/04 08:51:33;;;;;;;8.50;8.00;;;23.00;99.90;;;;;;4991903;28;20219;-81
2023/06/04 08:54:00;;;;;;;9.15;8.38;;;23.00;99.90;;;;;;4991981;28;20277;-81
2023/06/04 08:56:28;;;;;;;15.63;15.05;;;22.50;99.90;;;;;;4991524;28;20219;-81
2023/06/04 08:58:59;;;;;;;8.43;7.90;;;22.30;99.90;;;;;;5008943;28;20259;-81
2023/06/04 09:01:25;;;;;;;9.27;8.73;;;22.20;99.90;;;;;;5009490;28;20552;-81
2023/06/04 09:03:51;;;;;;;9.95;9.57;;;22.90;99.90;;;;;;4975669;28;20231;-81
2023/06/04 09:06:17;;;;;;;10.15;9.65;;;23.20;99.90;;;;;;4991442;28;20305;-81
2023/06/04 09:08:45;;;;;;;9.18;8.88;;;21.60;99.90;;;;;;4991060;28;20301;-81
2023/06/04 09:11:15;;;;;;;9.48;9.07;;;21.50;99.90;;;;;;4975536;28;20262;-81
2023/06/04 09:13:46;;;;;;;9.77;9.35;;;21.30;99.90;;;;;;4991987;28;20306;-81
2023/06/04 09:16:12;;;;;;;8.30;8.00;;;22.00;99.90;;;;;;5009099;28;20243;-81
2023/06/04 09:18:37;;;;;;;9.32;8.93;;;21.70;99.90;;;;;;4991276;28;20734;-81
2023/06/04 09:21:08;;;;;;;12.20;11.70;;;22.20;99.90;;;;;;4959445;28;20215;-81
2023/06/04 09:23:47;;;;;;;11.93;11.43;;;22.20;99.90;;;;;;5008367;28;20710;-80
2023/06/04 09:26:13;;;;;;;13.20;12.73;;;22.70;99.90;;;;;;5008506;28;20214;-81
2023/06/04 09:28:46;;;;;;;11.05;10.45;;;22.90;99.90;;;;;;4991387;28;20186;-80
2023/06/04 09:31:16;;;;;;;10.18;9.88;;;23.10;99.90;;;;;;4991148;28;20219;-80
2023/06/04 09:33:51;;;;;;;32.85;31.80;;;23.50;99.90;;;;;;5008429;28;20215;-80
2023/06/04 09:36:17;;;;;;;10.57;10.18;;;22.80;99.90;;;;;;4991142;28;20667;-80
2023/06/04 09:38:43;;;;;;;9.65;9.25;;;22.60;99.90;;;;;;4990394;28;20229;-80
2023/06/04 09:41:19;;;;;;;10.68;10.27;;;21.80;99.90;;;;;;4990736;28;20780;-81
2023/06/04 09:43:45;;;;;;;10.95;10.20;;;20.50;99.90;;;;;;5008310;28;20734;-81
2023/06/04 09:46:16;;;;;;;10.70;10.10;;;20.80;99.90;;;;;;5008601;28;20322;-81
2023/06/04 09:48:43;;;;;;;11.55;11.07;;;20.70;99.90;;;;;;4990844;28;20215;-81
2023/06/04 09:51:12;;;;;;;14.20;13.70;;;20.90;99.90;;;;;;5008336;28;20306;-81
2023/06/04 09:53:38;;;;;;;14.30;13.85;;;21.00;99.90;;;;;;5008031;28;20242;-81
2023/06/04 09:56:10;;;;;;;11.52;11.13;;;20.80;99.90;;;;;;5007917;28;20218;-81
2023/06/04 09:58:37;;;;;;;16.27;15.73;;;21.60;99.90;;;;;;4990898;28;20179;-81
2023/06/04 10:01:04;;;;;;;14.95;14.38;;;21.90;99.90;;;;;;5008005;28;20739;-81
2023/06/04 10:03:33;;;;;;;12.50;11.95;;;21.90;99.90;;;;;;4990440;28;20227;-81
2023/06/04 10:06:01;;;;;;;14.77;14.20;;;21.60;99.90;;;;;;4990169;28;20231;-80
2023/06/04 10:08:28;;;;;;;11.70;11.30;;;22.10;99.90;;;;;;4990295;28;20310;-81
2023/06/04 10:11:01;;;;;;;17.70;17.10;;;21.50;99.90;;;;;;5007909;28;20591;-80
2023/06/04 10:13:38;;;;;;;12.33;11.83;;;20.90;99.90;;;;;;5008541;28;20605;-80
2023/06/04 10:16:06;;;;;;;15.95;15.35;;;21.50;99.90;;;;;;5007757;28;20247;-81
2023/06/04 10:18:33;;;;;;;13.45;12.63;;;22.10;99.90;;;;;;5006610;28;20691;-81
2023/06/04 10:20:59;;;;;;;14.65;14.13;;;22.30;99.90;;;;;;5007764;28;20235;-81
2023/06/04 10:23:29;;;;;;;14.98;14.48;;;21.20;99.90;;;;;;4990097;28;20269;-81
2023/06/04 10:25:55;;;;;;;11.80;11.40;;;20.70;99.90;;;;;;4974212;28;20302;-81
2023/06/04 10:28:23;;;;;;;21.17;20.52;;;20.40;99.90;;;;;;4990444;28;20836;-81
2023/06/04 10:30:50;;;;;;;25.50;24.67;;;20.60;99.90;;;;;;4989827;28;20728;-81
2023/06/04 10:33:23;;;;;;;23.53;22.57;;;19.90;99.90;;;;;;4989956;28;20324;-80
2023/06/04 10:35:50;;;;;;;19.07;18.40;;;20.20;99.90;;;;;;5006272;28;20221;-81
2023/06/04 10:38:21;;;;;;;31.30;30.27;;;20.40;99.90;;;;;;5007316;28;20281;-81
2023/06/04 10:40:47;;;;;;;27.00;25.83;;;20.60;99.90;;;;;;4974619;28;20267;-81
2023/06/04 10:43:15;;;;;;;32.80;31.53;;;20.20;99.90;;;;;;4973701;28;20301;-80
2023/06/04 10:45:42;;;;;;;33.50;32.40;;;20.00;99.90;;;;;;4973414;28;20696;-81
2023/06/04 10:48:13;;;;;;;36.87;35.63;;;20.10;99.90;;;;;;5006947;28;20219;-81
2023/06/04 10:50:52;;;;;;;38.43;37.03;;;20.60;99.90;;;;;;5007124;28;20230;-81
2023/06/04 10:53:19;;;;;;;52.20;50.50;;;21.00;99.90;;;;;;4989594;28;20680;-81
2023/06/04 10:55:47;;;;;;;32.23;31.00;;;20.80;99.90;;;;;;5007709;28;20179;-81
2023/06/04 10:58:13;;;;;;;53.80;52.00;;;19.70;99.90;;;;;;4989481;28;20231;-81
2023/06/04 11:00:45;;;;;;;48.33;46.60;;;20.20;99.90;;;;;;4989361;28;20226;-81
2023/06/04 11:03:12;;;;;;;41.63;40.20;;;20.10;99.90;;;;;;4989360;28;20223;-81
2023/06/04 11:05:42;;;;;;;37.50;36.30;;;20.50;99.90;;;;;;4989281;28;20855;-81
2023/06/04 11:08:10;;;;;;;46.73;45.23;;;20.10;99.90;;;;;;5007053;28;20205;-81
2023/06/04 11:10:40;;;;;;;34.70;33.60;;;19.70;99.90;;;;;;4989593;28;20637;-81
2023/06/04 11:13:07;;;;;;;43.00;41.50;;;20.00;99.90;;;;;;4989403;28;20211;-81
2023/06/04 11:15:42;;;;;;;52.90;51.10;;;20.50;99.90;;;;;;4989065;28;20219;-81
2023/06/04 11:18:13;;;;;;;45.07;43.47;;;20.00;99.90;;;;;;4989331;28;20229;-81
2023/06/04 11:20:39;;;;;;;47.63;46.03;;;20.10;99.90;;;;;;4989342;28;20588;-81
2023/06/04 11:23:05;;;;;;;52.53;50.73;;;19.90;99.90;;;;;;4989333;28;20176;-80
2023/06/04 11:25:33;;;;;;;34.30;33.20;;;19.60;99.90;;;;;;4973757;28;20182;-80
2023/06/04 11:27:59;;;;;;;43.37;41.80;;;19.90;99.90;;;;;;4989179;28;20593;-80
2023/06/04 11:30:26;;;;;;;36.13;34.83;;;19.90;99.90;;;;;;4990956;28;20769;-80
2023/06/04 11:33:01;;;;;;;37.77;36.40;;;19.40;99.90;;;;;;4993257;28;20342;-81
2023/06/04 11:35:27;;;;;;;43.77;42.23;;;19.40;99.90;;;;;;5010803;28;20294;-81
2023/06/04 11:37:54;;;;;;;55.97;53.93;;;19.60;99.90;;;;;;4993766;28;20498;-80
2023/06/04 11:40:20;;;;;;;56.07;54.03;;;19.30;99.90;;;;;;5010613;28;20837;-81
2023/06/04 11:42:47;;;;;;;55.70;53.37;;;19.40;99.90;;;;;;4993146;28;20219;-81
2023/06/04 11:45:17;;;;;;;62.50;60.50;;;19.30;99.90;;;;;;4976789;28;20293;-80
2023/06/04 11:47:55;;;;;;;68.73;66.43;;;18.90;99.90;;;;;;5010391;28;20246;-80
2023/06/04 11:50:21;;;;;;;70.13;67.87;;;19.00;99.90;;;;;;4992777;28;20215;-81
2023/06/04 11:52:48;;;;;;;74.77;72.27;;;18.90;99.90;;;;;;4993455;28;20183;-80
2023/06/04 11:55:14;;;;;;;64.57;62.47;;;18.60;99.90;;;;;;4992447;28;20218;-81
2023/06/04 11:57:40;;;;;;;66.37;64.20;;;18.80;99.90;;;;;;5010200;28;20265;-81
2023/06/04 12:00:11;;;;;;;77.13;74.57;;;18.70;99.90;;;;;;4976651;28;20711;-80
2023/06/04 12:02:37;;;;;;;73.87;71.33;;;18.90;99.90;;;;;;4992480;28;20249;-80
2023/06/04 12:05:29;;;;;;;77.13;74.50;;;18.60;99.90;;;;;;4992215;28;20668;-80
2023/06/04 12:08:09;;;;;;;73.53;71.03;;;18.40;99.90;;;;;;4983639;28;20197;-80
2023/06/04 12:10:43;;;;;;;74.07;71.77;;;18.60;99.90;;;;;;4977047;28;20609;-80
2023/06/04 12:13:09;;;;;;;79.80;77.30;;;18.40;99.90;;;;;;4992775;28;20289;-79
2023/06/04 12:15:36;;;;;;;67.10;64.67;;;18.60;99.90;;;;;;4992352;28;20215;-79
2023/06/04 12:18:04;;;;;;;68.63;66.27;;;18.80;99.90;;;;;;4992448;28;20272;-78
2023/06/04 12:20:36;;;;;;;73.60;71.30;;;18.50;99.90;;;;;;5006131;28;20274;-79
2023/06/04 12:23:04;;;;;;;71.90;69.60;;;18.60;99.90;;;;;;4990319;28;20211;-79
2023/06/04 12:25:31;;;;;;;65.03;62.93;;;18.20;99.90;;;;;;4991451;28;20171;-79
2023/06/04 12:27:56;;;;;;;69.00;66.80;;;18.30;99.90;;;;;;4990777;28;20219;-81
2023/06/04 12:30:23;;;;;;;74.47;71.97;;;18.50;99.90;;;;;;4990959;28;20223;-80
2023/06/04 12:32:50;;;;;;;76.70;74.30;;;18.60;99.90;;;;;;5008851;28;20246;-80